Time;durP1;ratioP1;P1;durP2;ratioP2;P2;SDS_P1;SDS_P2;PMS_P1;PMS_P2;Temp;Humidity;BMP_temperature;BMP_pressure;BME280_temperature;BME280_humidity;BME280_pressure;Samples;Min_cycle;Max_cycle;Signal;HPM_P1;HPM_P2
2022/06/13 00:01:33;;;;;;;8.93;5.07;;;16.60;99.90;;;;;;5036852;28;20029;-74
2022/06/13 00:04:01;;;;;;;9.48;5.43;;;16.60;99.90;;;;;;5039664;28;20442;-76
2022/06/13 00:06:27;;;;;;;10.38;5.10;;;16.50;99.90;;;;;;5041855;28;20017;-76
2022/06/13 00:08:53;;;;;;;8.30;4.90;;;16.50;99.90;;;;;;5041657;28;20112;-75
2022/06/13 00:11:21;;;;;;;7.68;5.32;;;16.60;99.90;;;;;;5038343;28;20474;-77
2022/06/13 00:13:51;;;;;;;6.88;4.80;;;16.60;99.90;;;;;;5038228;28;20099;-75
2022/06/13 00:16:16;;;;;;;8.30;4.85;;;16.50;99.90;;;;;;5042065;28;20033;-75
2022/06/13 00:18:48;;;;;;;5.72;4.90;;;16.50;99.90;;;;;;5036534;28;20021;-76
2022/06/13 00:21:26;;;;;;;8.77;5.38;;;16.50;99.90;;;;;;5032563;28;20033;-75
2022/06/13 00:23:52;;;;;;;7.97;5.60;;;16.50;99.90;;;;;;5050843;28;20108;-74
2022/06/13 00:26:21;;;;;;;8.13;5.32;;;16.40;99.90;;;;;;5042851;28;20079;-75
2022/06/13 00:28:47;;;;;;;9.90;5.15;;;16.40;99.90;;;;;;5037649;28;20056;-76
2022/06/13 00:31:13;;;;;;;7.25;5.25;;;16.40;99.90;;;;;;5032428;28;20061;-75
2022/06/13 00:33:39;;;;;;;6.25;4.72;;;16.40;99.90;;;;;;5045788;28;20434;-76
2022/06/13 00:36:06;;;;;;;5.53;4.72;;;16.40;99.90;;;;;;5042980;28;20029;-77
2022/06/13 00:38:32;;;;;;;7.93;5.25;;;16.40;99.90;;;;;;5031831;28;20053;-77
2022/06/13 00:40:58;;;;;;;5.45;4.65;;;16.40;99.90;;;;;;5035531;28;20485;-75
2022/06/13 00:43:24;;;;;;;6.47;4.25;;;16.30;99.90;;;;;;5041615;28;20108;-75
2022/06/13 00:45:49;;;;;;;7.47;4.30;;;16.30;99.90;;;;;;5040591;28;20025;-76
2022/06/13 00:48:19;;;;;;;7.13;4.85;;;16.30;99.90;;;;;;5039304;28;20025;-75
2022/06/13 00:50:51;;;;;;;5.13;4.47;;;16.30;99.90;;;;;;5040888;28;20041;-75
2022/06/13 00:53:30;;;;;;;7.40;4.45;;;16.20;99.90;;;;;;5038470;28;20343;-76
2022/06/13 00:56:01;;;;;;;5.05;4.15;;;16.20;99.90;;;;;;5034370;28;20035;-77
2022/06/13 00:58:29;;;;;;;9.02;4.72;;;16.20;99.90;;;;;;5043150;28;20078;-75
2022/06/13 01:00:57;;;;;;;6.72;4.57;;;16.20;99.90;;;;;;5042260;28;20467;-75
2022/06/13 01:03:25;;;;;;;8.23;4.45;;;16.20;99.90;;;;;;5036584;28;20037;-76
2022/06/13 01:05:53;;;;;;;5.38;4.45;;;16.20;99.90;;;;;;5037428;28;20036;-77
2022/06/13 01:08:21;;;;;;;9.52;4.35;;;16.20;99.90;;;;;;5046927;28;20016;-77
2022/06/13 01:14:00;;;;;;;9.70;4.43;;;16.20;99.90;;;;;;5029377;28;20360;-76
2022/06/13 01:16:44;;;;;;;4.85;4.35;;;16.20;99.90;;;;;;5044131;28;20195;-76
2022/06/13 01:19:33;;;;;;;5.40;4.55;;;16.20;99.90;;;;;;5032480;28;20095;-75
2022/06/13 01:22:36;;;;;;;7.05;4.78;;;16.20;99.90;;;;;;5035082;28;20032;-74
2022/06/13 01:25:29;;;;;;;4.65;4.25;;;16.20;99.90;;;;;;5046573;28;20159;-75
2022/06/13 01:28:29;;;;;;;10.52;4.85;;;16.20;99.90;;;;;;5028629;28;20025;-74
2022/06/13 01:31:25;;;;;;;5.25;4.57;;;16.20;99.90;;;;;;5032985;28;20103;-74
2022/06/13 01:34:28;;;;;;;7.25;5.10;;;16.20;99.90;;;;;;5044061;28;20033;-74
2022/06/13 01:37:19;;;;;;;8.63;4.47;;;16.20;99.90;;;;;;5030250;28;20030;-74
2022/06/13 01:40:03;;;;;;;7.07;4.60;;;16.20;99.90;;;;;;5035771;28;20033;-75
2022/06/13 01:43:01;;;;;;;6.50;4.53;;;16.20;99.90;;;;;;5033106;28;20901;-74
2022/06/13 01:45:35;;;;;;;8.13;4.00;;;16.20;99.90;;;;;;5033420;28;20029;-75
2022/06/13 01:48:11;;;;;;;6.25;4.55;;;16.20;99.90;;;;;;5035836;28;20304;-74
2022/06/13 01:50:45;;;;;;;8.43;4.38;;;16.20;99.90;;;;;;5042054;28;20155;-74
2022/06/13 01:53:49;;;;;;;4.45;4.03;;;16.20;99.90;;;;;;5037141;28;20049;-73
2022/06/13 01:56:19;;;;;;;7.82;4.55;;;16.20;99.90;;;;;;5035630;28;20071;-73
2022/06/13 01:58:50;;;;;;;;;;;16.20;99.90;;;;;;5048644;28;20485;-74
2022/06/13 02:01:30;;;;;;;5.97;4.60;;;16.20;99.90;;;;;;5035956;28;19909;-72
2022/06/13 02:04:19;;;;;;;5.65;4.40;;;16.20;99.90;;;;;;5029177;28;20498;-76
2022/06/13 02:07:01;;;;;;;4.88;4.20;;;16.20;99.90;;;;;;5037506;28;20459;-73
2022/06/13 02:09:32;;;;;;;6.03;4.40;;;16.20;99.90;;;;;;5031153;28;20060;-73
2022/06/13 02:11:58;;;;;;;5.72;3.95;;;16.20;99.90;;;;;;5029504;28;20048;-74
2022/06/13 02:14:43;;;;;;;5.55;4.22;;;16.20;99.90;;;;;;5036209;28;20040;-73
2022/06/13 02:17:12;;;;;;;5.85;4.53;;;16.30;99.90;;;;;;5039084;28;20151;-73
2022/06/13 02:19:46;;;;;;;5.90;4.47;;;16.30;99.90;;;;;;5032799;28;20372;-73
2022/06/13 02:22:40;;;;;;;4.65;4.18;;;16.30;99.90;;;;;;5024308;28;20013;-73
2022/06/13 02:25:43;;;;;;;8.30;4.80;;;16.30;99.90;;;;;;5043315;28;20079;-73
2022/06/13 02:28:27;;;;;;;7.50;4.20;;;16.30;99.90;;;;;;5030905;28;20113;-74
2022/06/13 02:31:11;;;;;;;4.78;4.10;;;16.30;99.90;;;;;;5031203;28;20095;-75
2022/06/13 02:33:54;;;;;;;6.22;4.60;;;16.40;99.90;;;;;;5033172;28;20038;-76
2022/06/13 02:36:36;;;;;;;6.57;4.50;;;16.40;99.90;;;;;;5037177;28;20032;-75
2022/06/13 02:39:09;;;;;;;5.47;4.20;;;16.40;99.90;;;;;;5033468;28;20025;-76
2022/06/13 02:41:43;;;;;;;5.68;4.60;;;16.40;99.90;;;;;;5033156;28;20033;-76
2022/06/13 02:44:17;;;;;;;5.72;4.22;;;16.40;99.90;;;;;;5041839;28;20501;-74
2022/06/13 02:46:47;;;;;;;9.07;4.28;;;16.40;99.90;;;;;;5033301;28;20037;-76
2022/06/13 02:49:42;;;;;;;7.80;3.50;;;16.40;99.90;;;;;;5042880;28;20091;-76
2022/06/13 02:52:27;;;;;;;6.22;3.63;;;16.30;99.90;;;;;;5027354;28;20504;-76
2022/06/13 02:54:59;;;;;;;9.40;3.50;;;16.30;99.90;;;;;;5025262;28;20033;-76
2022/06/13 02:57:32;;;;;;;4.28;3.28;;;16.30;99.90;;;;;;5035686;28;20037;-76
2022/06/13 03:00:27;;;;;;;6.18;3.53;;;16.20;99.90;;;;;;5026476;28;20024;-76
2022/06/13 03:03:09;;;;;;;5.22;3.35;;;16.20;99.90;;;;;;5027463;28;20029;-78
2022/06/13 03:05:49;;;;;;;4.35;3.22;;;16.20;99.90;;;;;;5033591;28;20029;-76
2022/06/13 03:08:33;;;;;;;6.38;3.50;;;16.10;99.90;;;;;;5046121;28;20021;-76
2022/06/13 03:11:27;;;;;;;5.85;3.40;;;16.10;99.90;;;;;;5027672;28;20079;-77
2022/06/13 03:14:21;;;;;;;6.65;3.38;;;16.00;99.90;;;;;;5037648;28;20049;-76
2022/06/13 03:16:49;;;;;;;4.45;3.35;;;16.00;99.90;;;;;;5044528;28;20079;-76
2022/06/13 03:19:28;;;;;;;6.03;2.78;;;16.00;99.90;;;;;;5036505;28;20041;-75
2022/06/13 03:22:03;;;;;;;5.93;3.50;;;16.00;99.90;;;;;;5031733;28;20052;-78
2022/06/13 03:24:39;;;;;;;7.00;3.10;;;15.90;99.90;;;;;;5046899;28;20029;-76
2022/06/13 03:27:16;;;;;;;5.95;2.70;;;15.90;99.90;;;;;;5038144;28;20032;-77
2022/06/13 03:29:48;;;;;;;6.25;3.25;;;15.80;99.90;;;;;;5034943;28;20025;-75
2022/06/13 03:32:18;;;;;;;6.53;2.83;;;15.80;99.90;;;;;;5030519;28;20370;-74
2022/06/13 03:34:51;;;;;;;6.45;3.50;;;15.80;99.90;;;;;;5037296;28;20541;-76
2022/06/13 03:37:40;;;;;;;9.15;2.95;;;15.80;99.90;;;;;;5038888;28;20029;-77
2022/06/13 03:40:16;;;;;;;5.57;2.90;;;15.70;99.90;;;;;;5026279;28;20025;-77
2022/06/13 03:42:54;;;;;;;5.80;2.20;;;15.70;99.90;;;;;;5043108;28;20021;-76
2022/06/13 03:45:30;;;;;;;8.13;3.70;;;15.60;99.90;;;;;;5035835;28;20033;-76
2022/06/13 03:48:04;;;;;;;10.85;2.92;;;15.70;99.90;;;;;;5036647;28;20166;-76
2022/06/13 03:50:46;;;;;;;7.43;2.78;;;15.60;99.90;;;;;;5040340;28;20757;-77
2022/06/13 03:53:25;;;;;;;9.70;3.13;;;15.60;99.90;;;;;;5034147;28;20091;-74
2022/06/13 03:55:56;;;;;;;7.72;2.85;;;15.60;99.90;;;;;;5039584;28;20025;-76
2022/06/13 03:58:30;;;;;;;5.93;2.55;;;15.60;99.90;;;;;;5043689;28;20025;-77
2022/06/13 04:01:05;;;;;;;10.25;3.45;;;15.50;99.90;;;;;;5040642;28;20438;-76
2022/06/13 04:03:31;;;;;;;6.05;2.28;;;15.50;99.90;;;;;;5037133;28;20667;-76
2022/06/13 04:05:58;;;;;;;7.05;3.00;;;15.50;99.90;;;;;;5038243;28;20469;-78
2022/06/13 04:08:27;;;;;;;10.95;2.63;;;15.50;99.90;;;;;;5047059;28;20009;-76
2022/06/13 04:11:14;;;;;;;9.35;2.60;;;15.50;99.90;;;;;;5034149;28;20052;-78
2022/06/13 04:13:57;;;;;;;9.43;2.38;;;15.50;99.90;;;;;;5036170;28;20053;-75
2022/06/13 04:16:41;;;;;;;7.28;2.78;;;15.50;99.90;;;;;;5041786;28;20035;-78
2022/06/13 04:19:24;;;;;;;7.82;2.58;;;15.50;99.90;;;;;;5034658;28;20100;-76
2022/06/13 04:22:03;;;;;;;8.63;2.88;;;15.40;99.90;;;;;;5039263;28;20104;-76
2022/06/13 04:24:46;;;;;;;12.95;3.13;;;15.40;99.90;;;;;;5047283;28;20043;-75
2022/06/13 04:27:34;;;;;;;6.18;2.72;;;15.50;99.90;;;;;;5034428;28;20025;-73
2022/06/13 04:30:18;;;;;;;8.93;2.60;;;15.50;99.90;;;;;;5038324;28;20029;-74
2022/06/13 04:32:57;;;;;;;8.13;2.95;;;15.50;99.90;;;;;;5044760;28;20025;-75
2022/06/13 04:35:23;;;;;;;8.80;2.88;;;15.50;99.90;;;;;;5037571;28;20045;-76
2022/06/13 04:37:50;;;;;;;5.47;2.63;;;15.50;99.90;;;;;;5037082;28;20059;-77
2022/06/13 04:40:26;;;;;;;10.45;3.03;;;15.60;99.90;;;;;;5039514;28;20028;-76
2022/06/13 04:42:55;;;;;;;12.32;3.13;;;15.70;99.90;;;;;;5031200;28;20049;-77
2022/06/13 04:45:32;;;;;;;10.75;3.05;;;15.60;99.90;;;;;;5036474;28;20037;-76
2022/06/13 04:47:58;;;;;;;9.32;2.33;;;15.60;99.90;;;;;;5036665;28;20028;-75
2022/06/13 04:50:37;;;;;;;7.43;2.50;;;15.50;99.90;;;;;;5040423;28;20074;-76
2022/06/13 04:53:06;;;;;;;5.65;2.78;;;15.50;99.90;;;;;;5020504;28;20057;-78
2022/06/13 04:55:41;;;;;;;14.65;3.38;;;15.50;99.90;;;;;;5032751;28;20159;-77
2022/06/13 04:58:26;;;;;;;9.23;3.22;;;15.40;99.90;;;;;;5039960;28;20056;-77
2022/06/13 05:01:00;;;;;;;12.68;3.08;;;15.40;99.90;;;;;;5027848;28;20490;-78
2022/06/13 05:03:29;;;;;;;10.55;3.53;;;15.40;99.90;;;;;;5028542;28;20104;-76
2022/06/13 05:05:59;;;;;;;11.35;3.47;;;15.50;99.90;;;;;;5036211;28;20071;-76
2022/06/13 05:08:28;;;;;;;11.52;3.00;;;15.50;99.90;;;;;;5032324;28;20026;-77
2022/06/13 05:11:00;;;;;;;9.05;3.00;;;15.60;99.90;;;;;;5030383;28;20020;-76
2022/06/13 05:13:26;;;;;;;7.30;2.55;;;15.60;99.90;;;;;;5029694;28;20399;-76
2022/06/13 05:16:04;;;;;;;9.93;2.92;;;15.70;99.90;;;;;;5036695;28;20025;-76
2022/06/13 05:18:56;;;;;;;8.27;3.05;;;15.80;99.90;;;;;;5029733;28;20037;-73
2022/06/13 05:21:33;;;;;;;10.13;3.38;;;15.90;99.90;;;;;;5044011;28;20032;-76
2022/06/13 05:24:18;;;;;;;10.38;3.35;;;16.00;99.90;;;;;;5033724;28;20033;-75
2022/06/13 05:26:43;;;;;;;8.25;2.67;;;16.00;99.90;;;;;;5030953;28;20040;-76
2022/06/13 05:29:10;;;;;;;13.95;3.47;;;16.00;99.90;;;;;;5018697;28;20364;-76
2022/06/13 05:31:37;;;;;;;7.20;2.60;;;16.10;99.90;;;;;;5029966;28;20018;-75
2022/06/13 05:34:04;;;;;;;8.25;2.53;;;16.10;99.90;;;;;;5031815;28;20037;-76
2022/06/13 05:36:30;;;;;;;11.93;2.58;;;16.20;99.90;;;;;;5025986;28;20502;-76
2022/06/13 05:39:01;;;;;;;11.70;3.00;;;16.20;99.90;;;;;;5035013;28;20033;-76
2022/06/13 05:41:27;;;;;;;7.97;2.90;;;16.30;99.90;;;;;;5031316;28;20034;-76
2022/06/13 05:43:53;;;;;;;9.13;3.17;;;16.30;99.90;;;;;;5035887;28;20061;-75
2022/06/13 05:46:32;;;;;;;9.73;3.72;;;16.40;99.90;;;;;;5020644;28;20061;-76
2022/06/13 05:48:59;;;;;;;9.40;3.45;;;16.50;99.90;;;;;;5029185;28;20029;-78
2022/06/13 05:51:25;;;;;;;7.35;2.85;;;16.50;99.90;;;;;;5028571;28;20069;-77
2022/06/13 05:53:50;;;;;;;13.80;3.20;;;16.50;99.90;;;;;;5026000;28;20036;-77
2022/06/13 05:56:19;;;;;;;9.43;2.78;;;16.60;99.90;;;;;;5030342;28;20453;-74
2022/06/13 05:58:44;;;;;;;14.75;3.58;;;16.70;99.90;;;;;;5018191;28;20021;-75
2022/06/13 06:01:13;;;;;;;8.98;3.22;;;16.80;99.90;;;;;;5029665;28;20028;-75
2022/06/13 06:03:39;;;;;;;11.40;3.45;;;16.80;99.90;;;;;;5031168;28;20053;-75
2022/06/13 06:06:05;;;;;;;11.77;3.13;;;16.90;99.90;;;;;;5033817;28;20026;-73
2022/06/13 06:08:35;;;;;;;7.28;2.70;;;16.90;99.90;;;;;;5037932;28;20040;-75
2022/06/13 06:11:01;;;;;;;13.55;3.03;;;17.00;99.90;;;;;;5031453;28;20079;-75
2022/06/13 06:13:28;;;;;;;7.43;2.47;;;17.10;99.90;;;;;;5042034;28;20407;-74
2022/06/13 06:15:56;;;;;;;7.78;2.67;;;17.10;99.90;;;;;;5028944;28;20396;-71
2022/06/13 06:18:22;;;;;;;8.32;2.60;;;17.20;99.90;;;;;;5020722;28;20037;-69
2022/06/13 06:20:48;;;;;;;8.32;2.58;;;17.20;99.90;;;;;;5031581;28;20183;-69
2022/06/13 06:23:14;;;;;;;8.63;3.00;;;17.20;99.90;;;;;;5036162;28;20108;-70
2022/06/13 06:25:41;;;;;;;4.95;2.13;;;17.30;99.90;;;;;;5031302;28;20152;-69
2022/06/13 06:28:07;;;;;;;7.13;2.50;;;17.40;99.90;;;;;;5022905;28;20036;-68
2022/06/13 06:30:34;;;;;;;5.20;2.10;;;17.50;99.90;;;;;;5028737;28;20120;-68
2022/06/13 06:33:00;;;;;;;6.70;2.20;;;17.60;99.90;;;;;;5031224;28;20156;-71
2022/06/13 06:35:28;;;;;;;13.43;2.45;;;17.60;99.90;;;;;;5030042;28;20037;-73
2022/06/13 06:37:55;;;;;;;10.75;2.90;;;17.70;99.90;;;;;;5031483;28;20040;-70
2022/06/13 06:40:23;;;;;;;7.32;2.53;;;17.70;99.90;;;;;;5030285;28;20370;-71
2022/06/13 06:42:49;;;;;;;10.65;2.63;;;17.80;99.90;;;;;;5026454;28;20053;-71
2022/06/13 06:45:18;;;;;;;7.32;2.95;;;17.70;99.90;;;;;;5032451;28;20061;-69
2022/06/13 06:47:45;;;;;;;9.90;2.47;;;17.70;99.90;;;;;;5035226;28;20099;-69
2022/06/13 06:50:22;;;;;;;14.15;3.38;;;17.70;99.90;;;;;;5031141;28;20057;-72
2022/06/13 06:52:49;;;;;;;5.53;2.00;;;17.80;99.90;;;;;;5031378;28;20405;-72
2022/06/13 07:00:47;;;;;;;11.43;2.83;;;18.10;99.90;;;;;;5024329;28;20375;-69
2022/06/13 07:03:13;;;;;;;7.32;2.30;;;18.30;99.90;;;;;;5032030;28;20035;-69
2022/06/13 07:05:39;;;;;;;12.50;2.75;;;18.20;99.90;;;;;;5031907;28;20022;-70
2022/06/13 07:08:05;;;;;;;8.25;2.92;;;18.20;99.90;;;;;;5031595;28;20478;-71
2022/06/13 07:10:34;;;;;;;6.43;2.35;;;18.10;99.90;;;;;;5029890;28;20112;-71
2022/06/13 07:12:59;;;;;;;11.02;2.72;;;18.20;99.90;;;;;;5030029;28;20057;-69
2022/06/13 07:15:25;;;;;;;8.25;2.80;;;18.20;99.90;;;;;;5029554;28;20030;-70
2022/06/13 07:17:51;;;;;;;8.13;2.65;;;18.40;99.90;;;;;;5030793;28;20021;-70
2022/06/13 07:20:17;;;;;;;8.45;2.50;;;18.50;99.90;;;;;;5028712;28;20025;-70
2022/06/13 07:22:48;;;;;;;5.28;2.40;;;18.40;99.90;;;;;;5030858;28;20076;-71
2022/06/13 07:25:18;;;;;;;7.65;2.63;;;18.40;99.90;;;;;;5029959;28;20037;-71
2022/06/13 07:27:44;;;;;;;7.43;2.83;;;18.50;99.90;;;;;;5029190;28;20033;-70
2022/06/13 07:30:12;;;;;;;8.32;2.53;;;18.60;99.90;;;;;;5029047;28;20280;-69
2022/06/13 07:32:39;;;;;;;8.10;2.20;;;18.60;99.90;;;;;;5029251;28;20030;-70
2022/06/13 07:35:05;;;;;;;8.80;2.92;;;18.70;99.90;;;;;;5030559;28;20037;-70
2022/06/13 07:40:15;;;;;;;9.43;2.67;;;18.60;99.90;;;;;;5028424;28;20040;-69
2022/06/13 07:42:46;;;;;;;11.02;2.58;;;18.70;99.90;;;;;;5026047;28;20112;-70
2022/06/13 07:45:16;;;;;;;5.30;2.10;;;18.70;99.90;;;;;;5029939;28;20485;-70
2022/06/13 07:47:42;;;;;;;;;;;18.80;99.90;;;;;;5027567;28;20026;-70
2022/06/13 07:50:12;;;;;;;6.65;2.35;;;18.90;99.90;;;;;;5018720;28;19913;-70
2022/06/13 07:52:38;;;;;;;11.88;2.75;;;19.10;99.90;;;;;;5030048;28;20056;-71
2022/06/13 07:55:04;;;;;;;7.13;2.47;;;19.20;99.90;;;;;;5030503;28;20069;-71
2022/06/13 07:57:31;;;;;;;13.10;3.47;;;19.30;99.90;;;;;;5028841;28;20030;-71
2022/06/13 07:59:57;;;;;;;10.55;3.05;;;19.40;99.90;;;;;;5030445;28;20422;-72
2022/06/13 08:02:25;;;;;;;8.75;2.42;;;19.50;99.90;;;;;;5028807;28;20095;-71
2022/06/13 08:04:51;;;;;;;8.65;2.90;;;19.60;99.90;;;;;;5030429;28;20041;-73
2022/06/13 08:07:16;;;;;;;10.70;2.80;;;19.60;99.60;;;;;;5029068;28;20120;-72
2022/06/13 08:09:42;;;;;;;8.00;2.75;;;19.70;99.10;;;;;;5030417;28;20143;-72
2022/06/13 08:12:10;;;;;;;7.18;2.35;;;19.80;99.00;;;;;;5027272;28;20021;-71
2022/06/13 08:14:36;;;;;;;12.60;2.90;;;20.00;98.00;;;;;;5028720;28;20084;-74
2022/06/13 08:17:02;;;;;;;6.45;2.13;;;20.10;98.10;;;;;;5030630;28;20022;-74
2022/06/13 08:19:27;;;;;;;11.68;2.88;;;20.20;98.30;;;;;;5029484;28;20060;-73
2022/06/13 08:21:53;;;;;;;6.15;2.85;;;20.30;98.00;;;;;;5030397;28;20128;-73
2022/06/13 08:24:19;;;;;;;9.55;2.92;;;20.30;97.90;;;;;;5031713;28;20032;-74
2022/06/13 08:26:46;;;;;;;8.63;2.65;;;20.40;97.60;;;;;;5031957;28;20372;-74
2022/06/13 08:29:12;;;;;;;11.77;2.70;;;20.40;96.90;;;;;;5033510;28;20033;-74
2022/06/13 08:31:38;;;;;;;8.10;2.80;;;20.40;96.70;;;;;;5034623;28;20021;-74
2022/06/13 08:34:05;;;;;;;11.48;2.95;;;20.40;96.90;;;;;;5033278;28;20356;-74
2022/06/13 08:36:31;;;;;;;13.13;2.80;;;20.50;96.20;;;;;;5032420;28;20033;-73
2022/06/13 08:38:57;;;;;;;9.75;2.88;;;20.50;96.50;;;;;;5033131;28;20021;-74
2022/06/13 08:41:37;;;;;;;9.45;3.05;;;20.60;96.00;;;;;;5032015;28;20599;-73
2022/06/13 08:44:29;;;;;;;9.00;3.00;;;20.70;95.50;;;;;;5033318;28;20514;-73
2022/06/13 08:47:09;;;;;;;6.78;2.67;;;20.70;94.70;;;;;;5033248;28;20036;-74
2022/06/13 08:49:42;;;;;;;9.05;2.45;;;20.80;94.90;;;;;;5031941;28;20025;-73
2022/06/13 08:52:26;;;;;;;8.93;2.58;;;20.90;94.00;;;;;;5032462;28;20032;-74
2022/06/13 08:55:04;;;;;;;8.40;2.70;;;21.00;93.70;;;;;;5031454;28;20037;-74
2022/06/13 08:57:34;;;;;;;9.38;2.47;;;20.90;93.60;;;;;;5034402;28;20467;-73
2022/06/13 09:00:13;;;;;;;9.00;2.80;;;20.90;93.10;;;;;;5033611;28;20383;-74
2022/06/13 09:03:04;;;;;;;10.50;3.10;;;20.70;93.90;;;;;;5034958;28;20064;-72
2022/06/13 09:05:54;;;;;;;6.18;2.72;;;20.60;94.20;;;;;;5032452;28;20022;-73
2022/06/13 09:08:45;;;;;;;6.10;2.90;;;20.60;94.20;;;;;;5032369;28;20025;-73
2022/06/13 09:11:31;;;;;;;10.45;2.92;;;20.70;94.30;;;;;;5029600;28;20040;-73
2022/06/13 09:14:20;;;;;;;9.65;3.30;;;20.80;93.70;;;;;;5031249;28;20053;-73
2022/06/13 09:16:56;;;;;;;13.13;2.90;;;20.70;93.50;;;;;;5031421;28;20029;-74
2022/06/13 09:19:31;;;;;;;11.35;2.67;;;20.90;93.20;;;;;;5031999;28;20021;-72
2022/06/13 09:22:32;;;;;;;7.18;2.75;;;20.90;92.20;;;;;;5033081;28;20053;-73
2022/06/13 09:25:14;;;;;;;10.95;3.10;;;21.10;92.30;;;;;;5032044;28;20038;-72
2022/06/13 09:28:00;;;;;;;8.77;3.20;;;21.20;91.50;;;;;;5029584;28;20455;-73
2022/06/13 09:30:34;;;;;;;11.02;2.85;;;21.30;91.90;;;;;;5024792;28;20428;-73
2022/06/13 09:33:07;;;;;;;7.55;2.72;;;21.30;91.60;;;;;;5027238;28;20041;-72
2022/06/13 09:35:45;;;;;;;5.72;2.05;;;21.10;90.20;;;;;;5029761;28;20029;-74
2022/06/13 09:38:31;;;;;;;8.23;2.53;;;21.30;89.60;;;;;;5031444;28;20544;-73
2022/06/13 09:41:03;;;;;;;9.82;2.28;;;21.60;88.20;;;;;;5030599;28;20026;-73
2022/06/13 09:43:54;;;;;;;7.40;2.15;;;21.70;89.10;;;;;;5031235;28;20033;-74
2022/06/13 09:46:34;;;;;;;9.18;2.33;;;22.00;88.00;;;;;;5021965;28;20052;-74
2022/06/13 09:49:08;;;;;;;10.63;2.58;;;22.40;87.50;;;;;;5029664;28;20025;-73
2022/06/13 09:51:51;;;;;;;8.55;2.60;;;22.60;85.90;;;;;;5024284;28;20021;-73
2022/06/13 09:54:53;;;;;;;7.70;2.25;;;22.50;81.20;;;;;;5021221;28;20056;-74
2022/06/13 09:57:18;;;;;;;9.77;1.98;;;22.00;80.90;;;;;;5019132;28;20045;-74
2022/06/13 10:00:04;;;;;;;8.73;2.67;;;22.00;81.80;;;;;;5030704;28;20344;-73
2022/06/13 10:03:02;;;;;;;5.70;2.10;;;22.10;80.20;;;;;;5016503;28;20129;-74
2022/06/13 10:05:47;;;;;;;9.82;2.28;;;22.30;81.30;;;;;;5029424;28;20040;-78
2022/06/13 10:08:25;;;;;;;7.28;3.47;;;22.50;78.60;;;;;;5031126;28;20388;-80
2022/06/13 10:11:16;;;;;;;5.18;2.15;;;22.70;78.30;;;;;;5031739;28;20036;-79
2022/06/13 10:13:44;;;;;;;8.30;2.60;;;22.80;78.00;;;;;;5030905;28;20509;-74
2022/06/13 10:16:36;;;;;;;5.95;2.50;;;22.90;78.10;;;;;;5030787;28;20037;-72
2022/06/13 10:19:17;;;;;;;6.97;2.92;;;22.80;78.40;;;;;;5030816;28;20442;-72
2022/06/13 10:21:48;;;;;;;14.13;2.63;;;22.90;76.00;;;;;;5031083;28;20498;-72
2022/06/13 10:24:22;;;;;;;10.15;2.28;;;22.90;75.30;;;;;;5027334;28;20544;-72
2022/06/13 10:27:03;;;;;;;8.48;2.90;;;22.80;75.10;;;;;;5022020;28;20037;-72
2022/06/13 10:29:53;;;;;;;6.28;1.90;;;22.40;76.20;;;;;;5022748;28;20521;-77
2022/06/13 10:32:31;;;;;;;4.43;1.80;;;22.40;75.30;;;;;;5037436;28;20047;-72
2022/06/13 10:35:27;;;;;;;6.80;2.03;;;22.80;73.90;;;;;;5023919;28;20056;-71
2022/06/13 10:38:12;;;;;;;5.10;2.08;;;23.10;72.70;;;;;;5029306;28;20049;-72
2022/06/13 10:40:40;;;;;;;7.68;1.77;;;23.10;72.10;;;;;;5030288;28;20022;-71
2022/06/13 10:43:06;;;;;;;8.45;1.63;;;23.20;73.70;;;;;;5030267;28;20041;-72
2022/06/13 10:45:34;;;;;;;6.60;1.63;;;23.40;71.10;;;;;;5029944;28;20028;-72
2022/06/13 10:48:21;;;;;;;4.85;2.00;;;23.80;72.00;;;;;;5028616;28;20043;-72
2022/06/13 10:50:58;;;;;;;4.32;1.73;;;23.80;68.30;;;;;;5030269;28;20087;-72
2022/06/13 10:53:30;;;;;;;5.13;2.13;;;23.60;68.30;;;;;;5029517;28;20033;-72
2022/06/13 10:55:58;;;;;;;6.15;2.05;;;23.70;69.10;;;;;;5029638;28;20022;-72
2022/06/13 10:58:29;;;;;;;3.97;1.70;;;23.70;69.00;;;;;;5030313;28;20100;-72
2022/06/13 11:01:04;;;;;;;7.55;2.35;;;23.90;69.60;;;;;;5030769;28;20025;-72
2022/06/13 11:03:30;;;;;;;6.22;1.98;;;23.80;68.20;;;;;;5028907;28;20056;-71
2022/06/13 11:06:03;;;;;;;7.28;2.30;;;23.80;68.60;;;;;;5030546;28;20030;-72
2022/06/13 11:08:30;;;;;;;6.28;1.98;;;23.90;67.80;;;;;;5030233;28;20052;-72
2022/06/13 11:11:05;;;;;;;7.68;2.17;;;23.60;68.30;;;;;;5030869;28;20112;-72
2022/06/13 11:13:34;;;;;;;7.88;1.98;;;23.40;67.80;;;;;;5029786;28;20194;-72
2022/06/13 11:25:10;;;;;;;5.88;1.92;;;23.70;66.30;;;;;;5021321;28;20040;-72
2022/06/13 11:27:40;;;;;;;4.45;1.80;;;23.70;65.70;;;;;;5029784;28;20695;-72
2022/06/13 11:30:28;;;;;;;7.45;2.13;;;23.30;66.70;;;;;;5029725;28;20042;-72
2022/06/13 11:33:06;;;;;;;7.68;2.00;;;23.50;67.20;;;;;;5037775;28;20407;-72
2022/06/13 11:35:39;;;;;;;6.72;2.00;;;23.70;66.80;;;;;;5028429;28;20095;-72
2022/06/13 11:38:28;;;;;;;6.60;2.33;;;24.20;67.60;;;;;;5029628;28;20037;-73
2022/06/13 11:41:09;;;;;;;5.35;1.77;;;24.40;65.20;;;;;;5030152;28;20033;-72
2022/06/13 11:43:41;;;;;;;4.07;1.63;;;24.20;65.50;;;;;;5029308;28;20033;-73
2022/06/13 11:46:12;;;;;;;7.97;2.67;;;24.20;65.60;;;;;;5032921;28;20768;-72
2022/06/13 11:48:46;;;;;;;4.38;2.13;;;23.80;65.00;;;;;;5034168;28;20035;-72
2022/06/13 11:51:24;;;;;;;4.20;2.25;;;23.60;66.50;;;;;;5030509;28;20052;-72
2022/06/13 11:53:51;;;;;;;3.50;2.00;;;23.50;67.20;;;;;;5030013;28;20529;-73
2022/06/13 11:56:30;;;;;;;5.47;2.30;;;23.80;66.50;;;;;;5030054;28;20029;-72
2022/06/13 11:58:59;;;;;;;10.00;2.75;;;24.00;66.60;;;;;;5034214;28;20030;-72
2022/06/13 12:01:38;;;;;;;8.10;1.95;;;24.00;63.80;;;;;;5038789;28;20047;-72
2022/06/13 12:04:13;;;;;;;6.13;1.90;;;23.90;65.70;;;;;;5033725;28;20072;-73
2022/06/13 12:06:44;;;;;;;5.63;2.17;;;24.10;65.30;;;;;;5033425;28;20033;-72
2022/06/13 12:09:34;;;;;;;4.78;2.03;;;24.60;64.80;;;;;;5033897;28;20025;-73
2022/06/13 12:12:01;;;;;;;;;;;25.00;63.20;;;;;;5034620;28;20030;-74
2022/06/13 12:14:36;;;;;;;4.28;1.80;;;25.10;62.20;;;;;;5033312;28;19928;-73
2022/06/13 12:17:18;;;;;;;3.20;1.80;;;25.00;63.00;;;;;;5033687;28;20034;-72
2022/06/13 12:20:04;;;;;;;5.43;1.90;;;25.20;62.60;;;;;;5030214;28;20112;-73
2022/06/13 12:22:43;;;;;;;3.08;1.50;;;25.50;61.60;;;;;;5032222;28;20057;-69
2022/06/13 12:25:46;;;;;;;3.95;1.73;;;25.20;61.70;;;;;;5033726;28;20037;-74
2022/06/13 12:28:15;;;;;;;7.65;2.45;;;24.80;60.60;;;;;;5023346;28;20042;-73
2022/06/13 12:30:56;;;;;;;3.33;1.60;;;24.40;60.30;;;;;;5033062;28;20026;-74
2022/06/13 12:33:44;;;;;;;7.03;1.77;;;24.30;61.60;;;;;;5039245;28;20029;-74
2022/06/13 12:36:15;;;;;;;3.50;1.58;;;24.40;59.50;;;;;;5032734;28;20378;-75
2022/06/13 12:39:02;;;;;;;7.13;1.88;;;24.50;59.20;;;;;;5032653;28;20032;-74
2022/06/13 12:41:56;;;;;;;4.63;1.60;;;24.40;60.20;;;;;;5033981;28;20021;-74
2022/06/13 12:44:27;;;;;;;5.10;1.48;;;24.50;61.60;;;;;;5032531;28;20120;-73
2022/06/13 12:47:08;;;;;;;5.03;1.83;;;25.00;61.20;;;;;;5033586;28;20030;-73
2022/06/13 12:49:58;;;;;;;5.82;1.67;;;25.00;58.20;;;;;;5032494;28;20093;-74
2022/06/13 12:52:37;;;;;;;6.43;1.42;;;25.00;59.30;;;;;;5021914;28;20129;-74
2022/06/13 12:55:24;;;;;;;5.75;1.77;;;25.40;58.20;;;;;;5032271;28;20041;-74
2022/06/13 12:58:15;;;;;;;7.68;1.63;;;25.00;57.30;;;;;;5033229;28;20108;-75
2022/06/13 13:00:50;;;;;;;3.80;1.73;;;24.70;58.50;;;;;;5030056;28;20033;-75
2022/06/13 13:03:19;;;;;;;5.65;1.77;;;24.40;57.90;;;;;;5030263;28;20557;-74
2022/06/13 13:06:00;;;;;;;2.88;1.15;;;23.80;58.80;;;;;;5032794;28;20035;-74
2022/06/13 13:08:44;;;;;;;3.60;1.40;;;23.70;59.40;;;;;;5019111;28;20091;-74
2022/06/13 13:11:46;;;;;;;4.32;1.77;;;23.80;60.10;;;;;;5032380;28;20471;-74
2022/06/13 13:14:11;;;;;;;4.45;1.50;;;24.00;59.50;;;;;;5032579;28;20171;-73
2022/06/13 13:16:54;;;;;;;2.70;1.30;;;24.00;60.00;;;;;;5031961;28;20102;-74
2022/06/13 13:19:50;;;;;;;2.60;1.23;;;24.20;60.00;;;;;;5027972;28;20029;-73
2022/06/13 13:22:40;;;;;;;4.55;1.48;;;24.70;58.40;;;;;;5032573;28;20036;-74
2022/06/13 13:25:16;;;;;;;4.85;1.40;;;24.60;58.40;;;;;;5032746;28;20080;-74
2022/06/13 13:27:51;;;;;;;7.00;1.75;;;24.30;59.20;;;;;;5031832;28;20029;-74
2022/06/13 13:30:23;;;;;;;3.80;1.40;;;24.30;58.90;;;;;;5029604;28;20375;-74
2022/06/13 13:33:01;;;;;;;3.05;1.63;;;24.10;59.10;;;;;;5035300;28;20080;-74
2022/06/13 13:35:36;;;;;;;4.72;1.77;;;24.30;59.50;;;;;;5030268;28;20459;-74
2022/06/13 13:38:11;;;;;;;6.10;1.90;;;24.50;59.10;;;;;;5039898;28;20098;-74
2022/06/13 13:40:45;;;;;;;3.25;1.48;;;24.90;58.90;;;;;;5030017;28;20033;-73
2022/06/13 13:43:34;;;;;;;5.07;1.33;;;25.50;58.40;;;;;;5032700;28;20034;-73
2022/06/13 13:46:23;;;;;;;4.03;1.70;;;26.10;57.00;;;;;;5031272;28;20033;-73
2022/06/13 13:48:57;;;;;;;4.68;1.60;;;26.60;56.70;;;;;;5024449;28;21579;-74